createdAt,value
2022-09-05T05:06:08.725Z,20.80
2022-09-05T05:16:20.655Z,20.70
2022-09-05T05:18:16.251Z,20.70
2022-09-05T05:21:46.827Z,20.80
2022-09-05T05:26:57.349Z,20.80
2022-09-05T05:32:03.825Z,20.70
2022-09-05T05:37:16.832Z,20.70
2022-09-05T05:42:24.544Z,20.80
2022-09-05T05:47:32.805Z,20.80
2022-09-05T05:53:02.212Z,20.80
2022-09-05T05:58:16.874Z,20.80
2022-09-05T06:03:46.342Z,20.80
2022-09-05T06:14:47.913Z,20.90
2022-09-05T06:15:31.300Z,21.00
2022-09-05T06:22:10.651Z,21.10
2022-09-05T06:26:49.229Z,21.10
2022-09-05T06:32:08.669Z,21.10
2022-09-05T06:37:24.798Z,21.20
2022-09-05T06:42:43.251Z,21.30
2022-09-05T06:47:56.742Z,21.40
2022-09-05T06:53:28.722Z,21.50
2022-09-05T06:59:09.867Z,21.50
2022-09-05T07:04:33.406Z,21.50
2022-09-05T07:09:59.098Z,21.60
2022-09-05T07:15:14.502Z,21.80
2022-09-05T07:20:27.324Z,21.80
2022-09-05T07:25:37.257Z,21.90
2022-09-05T07:30:43.403Z,22.00
2022-09-05T07:35:51.703Z,22.10
2022-09-05T07:41:03.138Z,22.20
2022-09-05T07:46:13.902Z,22.30
2022-09-05T07:56:51.228Z,22.40
2022-09-05T07:57:22.694Z,22.60
2022-09-05T08:02:16.755Z,22.60
2022-09-05T08:07:46.987Z,22.60
2022-09-05T08:13:24.261Z,22.80
2022-09-05T08:18:24.307Z,22.90
2022-09-05T08:23:46.350Z,23.10
2022-09-05T08:28:59.313Z,23.20
2022-09-05T08:34:11.909Z,23.30
2022-09-05T08:39:20.676Z,23.40
2022-09-05T08:46:42.505Z,23.50
2022-09-05T08:50:30.307Z,23.60
2022-09-05T08:55:44.702Z,23.70
2022-09-05T09:01:00.204Z,23.90
2022-09-05T09:06:22.299Z,24.10
2022-09-05T09:11:37.101Z,24.40
2022-09-05T09:16:47.429Z,24.70
2022-09-05T09:22:06.234Z,25.00
2022-09-05T09:27:29.786Z,25.50
2022-09-05T09:32:47.259Z,25.90
2022-09-05T09:38:17.049Z,26.30
2022-09-05T09:43:27.408Z,26.50
2022-09-05T09:49:02.826Z,26.60
2022-09-05T09:54:20.249Z,26.80
2022-09-05T09:59:54.169Z,27.30
2022-09-05T10:10:35.336Z,28.10
2022-09-05T10:11:37.635Z,28.40
2022-09-05T10:17:20.693Z,28.80
2022-09-05T10:22:52.580Z,29.60
2022-09-05T10:28:06.484Z,30.00
2022-09-05T10:35:18.139Z,30.20
2022-09-05T10:39:03.427Z,30.30
2022-09-05T10:44:11.232Z,30.80
2022-09-05T10:49:16.671Z,31.40
2022-09-05T10:54:41.146Z,32.10
2022-09-05T11:02:24.704Z,32.80
2022-09-05T11:05:29.517Z,32.70
2022-09-05T11:10:37.871Z,32.90
2022-09-05T11:16:06.738Z,33.30
2022-09-05T11:21:19.672Z,33.70
2022-09-05T11:26:35.165Z,34.20
2022-09-05T11:33:01.798Z,34.00
2022-09-05T11:39:57.508Z,34.60
2022-09-05T11:43:02.280Z,35.40
2022-09-05T11:48:39.468Z,35.30
2022-09-05T11:54:16.926Z,35.70
2022-09-05T12:00:30.637Z,35.90
2022-09-05T12:05:49.031Z,35.40
2022-09-05T12:11:09.912Z,34.90
2022-09-05T12:16:42.168Z,34.40
2022-09-05T12:22:10.151Z,33.70
2022-09-05T12:27:39.426Z,33.30
2022-09-05T12:36:05.625Z,32.90
2022-09-05T12:40:55.040Z,32.80
2022-09-05T12:44:39.010Z,33.30
2022-09-05T12:50:03.002Z,33.20
2022-09-05T12:55:26.762Z,33.30
2022-09-05T13:03:11.034Z,33.30
2022-09-05T13:06:17.084Z,33.60
2022-09-05T13:14:50.100Z,34.10
2022-09-05T13:17:01.253Z,34.70
2022-09-05T13:22:08.710Z,34.40
2022-09-05T13:27:16.532Z,34.10
2022-09-05T13:38:15.619Z,34.40
2022-09-05T13:43:32.999Z,34.60
2022-09-05T13:54:34.013Z,34.50
2022-09-05T13:59:43.006Z,34.40
2022-09-05T14:05:05.937Z,34.60
2022-09-05T14:10:37.177Z,35.00
2022-09-05T14:15:52.305Z,34.70
2022-09-05T14:21:17.343Z,34.60
2022-09-05T14:26:27.972Z,34.40
2022-09-05T14:37:45.690Z,34.40
2022-09-05T14:37:48.498Z,34.90
2022-09-05T14:43:15.076Z,34.80
2022-09-05T14:48:53.320Z,34.50
2022-09-05T14:54:01.203Z,34.10
2022-09-05T15:02:58.391Z,33.50
2022-09-05T15:04:51.232Z,32.60
2022-09-05T15:12:18.809Z,31.80
2022-09-05T15:15:39.415Z,31.30
2022-09-05T15:20:44.992Z,31.00
2022-09-05T15:25:51.732Z,30.90
2022-09-05T15:31:04.547Z,30.80
2022-09-05T15:36:13.434Z,30.60
2022-09-05T15:41:21.357Z,30.50
2022-09-05T15:46:35.632Z,30.30
2022-09-05T15:51:47.165Z,30.10
2022-09-05T15:56:53.499Z,30.20
2022-09-05T16:02:00.901Z,30.20
2022-09-05T16:10:33.561Z,30.00
2022-09-05T16:12:33.620Z,29.90
2022-09-05T16:23:12.829Z,29.80
2022-09-05T16:23:39.674Z,29.70
2022-09-05T16:28:39.680Z,29.60
2022-09-05T16:33:45.008Z,29.40
2022-09-05T16:38:52.895Z,29.30
2022-09-05T16:44:00.269Z,29.30
2022-09-05T16:49:13.574Z,29.20
2022-09-05T16:54:25.499Z,29.20
2022-09-05T16:59:32.357Z,29.10
2022-09-05T17:05:03.113Z,28.90
2022-09-05T17:10:11.609Z,28.90
2022-09-05T17:15:20.134Z,28.90
2022-09-05T17:20:27.839Z,28.80
2022-09-05T17:29:26.225Z,28.60
2022-09-05T17:36:41.276Z,28.30
2022-09-05T17:41:57.861Z,28.10
2022-09-05T17:47:14.621Z,27.90
2022-09-05T17:52:24.150Z,27.70
2022-09-05T17:57:41.458Z,27.50
2022-09-05T18:02:56.181Z,27.30
2022-09-05T18:08:01.146Z,27.20
2022-09-05T18:13:32.477Z,26.90
2022-09-05T18:19:28.967Z,26.60
2022-09-05T18:29:58.835Z,26.10
2022-09-05T18:35:26.627Z,25.90
2022-09-05T18:40:55.969Z,25.70
2022-09-05T18:46:06.745Z,25.50
2022-09-05T18:51:16.885Z,25.30
2022-09-05T18:56:27.634Z,25.10
2022-09-05T19:01:40.273Z,25.00
2022-09-05T19:06:49.084Z,24.80
2022-09-05T19:12:01.645Z,24.70
2022-09-05T19:17:32.959Z,24.60
2022-09-05T19:23:10.060Z,24.50
2022-09-05T19:36:55.341Z,24.40
2022-09-05T19:36:59.790Z,24.40
2022-09-05T19:40:46.692Z,24.20
2022-09-05T19:47:37.598Z,24.20
2022-09-05T19:50:05.697Z,24.10
2022-09-05T19:55:21.887Z,24.00
2022-09-05T20:00:29.200Z,24.00
2022-09-05T20:05:33.905Z,23.90
2022-09-05T20:10:38.550Z,23.80
2022-09-05T20:15:43.598Z,23.70
2022-09-05T20:20:53.190Z,23.50
2022-09-05T20:25:58.234Z,23.40
2022-09-05T20:31:08.656Z,23.30
2022-09-05T20:43:11.572Z,23.30
2022-09-05T20:43:21.924Z,23.30
2022-09-05T20:51:41.065Z,23.20
2022-09-05T20:54:14.298Z,23.10
2022-09-05T20:58:09.671Z,23.00
2022-09-05T21:03:26.910Z,23.00
2022-09-05T21:08:34.606Z,22.80
2022-09-05T21:13:51.869Z,22.80
2022-09-05T21:18:58.523Z,22.80
2022-09-05T21:24:16.922Z,22.80
2022-09-05T21:29:32.320Z,22.80
2022-09-05T21:34:45.158Z,22.90
2022-09-05T21:39:59.097Z,22.90
2022-09-05T21:47:38.027Z,22.80
2022-09-05T21:50:33.063Z,22.50
2022-09-05T21:59:25.568Z,22.40
2022-09-05T22:01:01.356Z,22.30
2022-09-05T22:06:07.601Z,22.30
2022-09-05T22:11:13.653Z,22.20
2022-09-05T22:16:17.577Z,22.10
2022-09-05T22:21:33.063Z,22.00
2022-09-05T22:26:51.993Z,22.00
